Time;durP1;ratioP1;P1;durP2;ratioP2;P2;SDS_P1;SDS_P2;PMS_P1;PMS_P2;Temp;Humidity;BMP_temperature;BMP_pressure;BME280_temperature;BME280_humidity;BME280_pressure;Samples;Min_cycle;Max_cycle;Signal;HPM_P1;HPM_P2
2022/01/29 00:01:38;;;;;;;4.40;4.00;;;;;;;3.35;66.59;95338.44;5053908;28;20210;-80
2022/01/29 00:04:05;;;;;;;11.00;5.20;;;;;;;3.40;66.50;95348.59;5053687;28;20457;-79
2022/01/29 00:06:32;;;;;;;10.90;6.20;;;;;;;3.47;66.29;95352.59;5053336;28;20813;-79
2022/01/29 00:09:00;;;;;;;6.97;5.00;;;;;;;3.34;65.62;95346.31;5053404;28;20808;-79
2022/01/29 00:11:30;;;;;;;7.30;4.80;;;;;;;3.26;66.72;95348.44;5017972;28;20480;-80
2022/01/29 00:13:57;;;;;;;8.43;5.17;;;;;;;3.18;67.17;95348.81;5053559;28;20441;-80
2022/01/29 00:16:24;;;;;;;5.17;4.07;;;;;;;3.04;66.91;95343.44;5053412;28;20447;-80
2022/01/29 00:18:51;;;;;;;5.90;4.13;;;;;;;2.99;68.04;95351.47;5053219;28;20453;-84
2022/01/29 00:21:18;;;;;;;7.07;5.17;;;;;;;2.96;68.65;95356.78;5053290;28;20472;-78
2022/01/29 00:23:45;;;;;;;10.10;6.00;;;;;;;2.90;69.13;95351.06;5052930;28;20448;-80
2022/01/29 00:26:13;;;;;;;6.67;4.80;;;;;;;2.91;69.31;95358.75;5002056;28;20467;-79
2022/01/29 00:28:40;;;;;;;8.07;5.43;;;;;;;2.92;69.98;95349.25;5053705;28;20446;-80
2022/01/29 00:31:10;;;;;;;13.23;6.23;;;;;;;2.98;69.69;95362.75;5053048;28;20973;-80
2022/01/29 00:33:38;;;;;;;8.50;6.37;;;;;;;2.95;69.89;95365.47;5052185;28;20451;-80
2022/01/29 00:36:05;;;;;;;9.17;5.90;;;;;;;2.90;70.68;95357.09;5052903;28;20863;-80
2022/01/29 00:38:33;;;;;;;10.47;6.43;;;;;;;2.97;70.05;95348.09;5017963;28;20932;-79
2022/01/29 00:41:00;;;;;;;9.63;6.30;;;;;;;3.01;70.37;95354.81;5052826;28;20450;-78
2022/01/29 00:43:30;;;;;;;9.30;6.40;;;;;;;3.06;70.43;95355.44;5052631;28;20446;-79
2022/01/29 00:45:57;;;;;;;9.43;6.47;;;;;;;3.04;70.05;95352.06;5052578;28;20936;-80
2022/01/29 00:48:23;;;;;;;6.90;4.80;;;;;;;2.93;71.27;95346.56;5001644;28;20445;-77
2022/01/29 00:50:50;;;;;;;11.07;6.63;;;;;;;2.95;71.02;95359.47;5052526;28;20483;-80
2022/01/29 00:53:17;;;;;;;13.90;8.40;;;;;;;2.97;71.52;95358.47;5001092;28;20445;-80
2022/01/29 00:55:45;;;;;;;13.90;6.57;;;;;;;2.96;70.96;95361.13;5052394;28;20445;-80
2022/01/29 00:58:12;;;;;;;9.60;5.40;;;;;;;2.93;71.66;95363.88;5052518;28;20464;-80
2022/01/29 01:00:40;;;;;;;8.07;6.07;;;;;;;2.90;71.33;95359.69;5052413;28;20446;-80
2022/01/29 01:03:07;;;;;;;7.47;5.70;;;;;;;2.82;71.92;95351.41;5052419;28;20805;-80
2022/01/29 01:05:34;;;;;;;6.97;6.17;;;;;;;2.82;72.65;95346.22;5052307;28;20449;-80
2022/01/29 01:08:01;;;;;;;15.53;6.43;;;;;;;2.87;72.54;95346.84;5052310;28;20467;-80
2022/01/29 01:10:28;;;;;;;10.03;6.90;;;;;;;2.86;72.75;95350.34;5000948;28;20488;-80
2022/01/29 01:12:54;;;;;;;15.23;10.33;;;;;;;2.89;73.32;95349.34;5052483;28;20783;-80
2022/01/29 01:15:21;;;;;;;9.60;7.40;;;;;;;2.96;73.39;95337.81;5052315;28;20452;-78
2022/01/29 01:17:50;;;;;;;14.30;10.30;;;;;;;2.95;73.16;95339.56;5051981;28;20457;-77
2022/01/29 01:20:16;;;;;;;12.30;7.87;;;;;;;2.99;73.42;95342.84;5052069;28;21000;-79
2022/01/29 01:22:43;;;;;;;8.30;6.57;;;;;;;2.88;73.74;95332.97;5000903;28;20440;-81
2022/01/29 01:25:11;;;;;;;10.17;6.67;;;;;;;2.92;73.66;95333.69;5052140;28;20445;-80
2022/01/29 01:27:37;;;;;;;9.57;6.50;;;;;;;2.87;74.46;95320.94;5000897;28;20445;-80
2022/01/29 01:30:05;;;;;;;6.67;5.80;;;;;;;2.78;74.07;95326.56;5000487;28;20496;-80
2022/01/29 01:32:33;;;;;;;8.00;7.20;;;;;;;2.75;74.55;95321.53;5052087;28;20994;-80
2022/01/29 01:35:09;;;;;;;9.37;6.50;;;;;;;2.78;74.56;95317.03;5052041;28;20444;-79
2022/01/29 01:37:43;;;;;;;8.63;6.50;;;;;;;2.81;74.40;95321.22;5052065;28;20445;-81
2022/01/29 01:40:11;;;;;;;11.53;6.73;;;;;;;2.74;74.24;95307.72;5052251;28;20449;-78
2022/01/29 01:42:38;;;;;;;6.50;5.73;;;;;;;2.69;74.52;95308.88;5052095;28;20970;-81
2022/01/29 01:45:06;;;;;;;9.17;6.63;;;;;;;2.70;74.63;95323.50;5052641;28;20455;-80
2022/01/29 01:47:33;;;;;;;8.20;6.57;;;;;;;2.72;74.90;95317.31;5056084;28;20922;-80
2022/01/29 01:50:01;;;;;;;8.37;5.33;;;;;;;2.69;74.21;95325.25;5055838;28;20991;-80
2022/01/29 01:52:29;;;;;;;5.90;5.23;;;;;;;2.60;75.81;95320.50;5056129;28;20445;-79
2022/01/29 01:54:56;;;;;;;6.77;5.53;;;;;;;2.66;75.99;95324.56;5055923;28;20448;-79
2022/01/29 01:57:23;;;;;;;8.30;7.40;;;;;;;2.57;76.42;95328.38;5055853;28;20452;-81
2022/01/29 01:59:49;;;;;;;7.20;5.50;;;;;;;2.59;76.00;95330.91;5055844;28;20447;-80
2022/01/29 02:02:16;;;;;;;12.10;5.73;;;;;;;2.52;76.23;95329.53;5056074;28;20527;-80
2022/01/29 02:04:43;;;;;;;5.43;4.93;;;;;;;2.49;77.47;95317.56;5055631;28;20937;-80
2022/01/29 02:07:11;;;;;;;9.33;6.40;;;;;;;2.48;77.07;95319.31;5055907;28;20445;-80
2022/01/29 02:09:39;;;;;;;9.17;5.83;;;;;;;2.51;77.29;95317.47;5055849;28;20449;-80
2022/01/29 02:12:09;;;;;;;7.63;6.40;;;;;;;2.54;76.99;95312.16;5055689;28;20578;-80
2022/01/29 02:14:38;;;;;;;11.83;6.57;;;;;;;2.55;76.68;95313.84;5005373;28;20451;-80
2022/01/29 02:17:05;;;;;;;6.70;6.07;;;;;;;2.52;77.38;95321.75;5055774;28;20535;-81
2022/01/29 02:19:32;;;;;;;6.90;5.43;;;;;;;2.42;77.62;95329.13;5055792;28;20451;-80
2022/01/29 02:22:00;;;;;;;6.53;5.87;;;;;;;2.33;77.75;95332.97;5055726;28;20206;-79
2022/01/29 02:24:28;;;;;;;8.43;6.60;;;;;;;2.31;78.23;95339.94;5055385;28;20447;-80
2022/01/29 02:26:55;;;;;;;7.57;5.77;;;;;;;2.29;78.30;95344.34;5055473;28;20305;-80
2022/01/29 02:29:22;;;;;;;8.60;6.10;;;;;;;2.29;78.85;95341.78;5055133;28;20444;-80
2022/01/29 02:31:50;;;;;;;8.33;6.50;;;;;;;2.29;78.82;95338.34;5055056;28;20506;-80
2022/01/29 02:34:17;;;;;;;7.50;6.67;;;;;;;2.25;78.92;95347.16;5019963;28;20449;-80
2022/01/29 02:36:45;;;;;;;11.27;5.37;;;;;;;2.26;79.85;95344.50;5055149;28;20454;-80
2022/01/29 02:39:16;;;;;;;8.90;7.33;;;;;;;2.30;79.57;95335.69;5055214;28;20496;-80
2022/01/29 02:41:44;;;;;;;9.23;7.20;;;;;;;2.39;79.34;95329.25;5053824;28;20443;-79
2022/01/29 02:44:15;;;;;;;17.40;6.53;;;;;;;2.36;79.55;95325.06;5055336;28;20228;-80
2022/01/29 02:46:49;;;;;;;6.60;6.00;;;;;;;2.38;79.56;95325.00;5055379;28;20457;-79
2022/01/29 02:49:17;;;;;;;10.70;6.80;;;;;;;2.39;79.37;95331.84;5006258;28;20531;-80
2022/01/29 02:51:45;;;;;;;9.70;6.57;;;;;;;2.33;78.46;95330.38;5054633;28;20487;-80
2022/01/29 02:54:13;;;;;;;9.57;8.00;;;;;;;2.31;78.18;95321.81;5054790;28;20950;-79
2022/01/29 02:56:40;;;;;;;10.80;6.27;;;;;;;2.34;78.09;95326.06;5053860;28;20445;-80
2022/01/29 02:59:07;;;;;;;6.43;5.10;;;;;;;2.30;78.51;95327.06;5054795;28;20937;-80
2022/01/29 03:01:34;;;;;;;10.23;5.80;;;;;;;2.28;78.76;95327.13;5019575;28;20978;-80
2022/01/29 03:04:01;;;;;;;7.50;5.70;;;;;;;2.29;79.02;95323.63;5054488;28;20859;-79
2022/01/29 03:06:29;;;;;;;7.33;6.30;;;;;;;2.29;78.57;95325.38;5054575;28;20458;-80
2022/01/29 03:08:56;;;;;;;10.20;6.63;;;;;;;2.29;79.05;95323.63;5054388;28;20852;-80
2022/01/29 03:11:24;;;;;;;8.17;5.70;;;;;;;2.27;79.33;95317.69;5054383;28;20990;-80
2022/01/29 03:13:51;;;;;;;7.00;5.73;;;;;;;2.25;79.37;95322.09;5054370;28;20445;-80
2022/01/29 03:16:19;;;;;;;11.50;6.97;;;;;;;2.33;79.17;95319.19;5054406;28;20484;-80
2022/01/29 03:18:46;;;;;;;8.80;5.40;;;;;;;2.38;78.17;95317.22;5054381;28;20452;-80
2022/01/29 03:21:13;;;;;;;11.40;6.10;;;;;;;2.39;77.67;95316.31;5054182;28;20445;-80
2022/01/29 03:23:41;;;;;;;6.90;5.13;;;;;;;2.30;77.02;95312.38;5054329;28;20440;-79
2022/01/29 03:26:08;;;;;;;8.40;6.20;;;;;;;2.23;77.39;95323.94;5054320;28;20491;-80
2022/01/29 03:28:37;;;;;;;6.50;5.17;;;;;;;2.19;76.55;95327.56;5054244;28;20451;-80
2022/01/29 03:31:04;;;;;;;7.07;6.13;;;;;;;2.23;76.50;95321.34;5054067;28;20509;-80
2022/01/29 03:33:31;;;;;;;9.00;6.13;;;;;;;2.22;75.50;95331.75;5054024;28;20813;-80
2022/01/29 03:35:57;;;;;;;9.30;5.82;;;;;;;2.26;75.04;95334.13;5053963;28;20448;-80
2022/01/29 03:38:25;;;;;;;5.65;4.72;;;;;;;2.27;74.51;95337.56;5054222;28;20209;-79
2022/01/29 03:40:52;;;;;;;7.03;5.00;;;;;;;2.19;74.32;95330.16;5053819;28;20208;-79
2022/01/29 03:43:27;;;;;;;4.20;3.80;;;;;;;2.21;73.98;95333.50;5053899;28;20581;-80
2022/01/29 03:45:56;;;;;;;5.00;3.90;;;;;;;2.22;74.18;95340.38;5053974;28;20458;-79
2022/01/29 03:48:22;;;;;;;5.10;3.80;;;;;;;2.29;73.96;95335.75;5053594;28;20462;-80
2022/01/29 03:50:49;;;;;;;6.03;4.40;;;;;;;2.29;73.58;95336.59;5053807;28;20484;-80
2022/01/29 03:53:16;;;;;;;4.65;4.25;;;;;;;2.24;73.78;95348.06;5053762;28;20439;-79
2022/01/29 03:55:43;;;;;;;4.85;4.43;;;;;;;2.28;74.43;95342.69;5053898;28;20237;-80
2022/01/29 03:58:10;;;;;;;5.43;4.90;;;;;;;2.31;74.81;95342.53;5053767;28;20202;-79
2022/01/29 04:00:37;;;;;;;4.73;4.30;;;;;;;2.35;74.43;95344.09;5053475;28;20449;-80
2022/01/29 04:03:05;;;;;;;5.60;5.00;;;;;;;2.40;74.03;95343.88;5053430;28;20447;-80
2022/01/29 04:05:32;;;;;;;4.93;4.53;;;;;;;2.38;74.06;95338.78;5018154;28;20443;-79
2022/01/29 04:07:59;;;;;;;4.78;4.38;;;;;;;2.39;74.99;95340.47;5053463;28;20455;-80
2022/01/29 04:10:27;;;;;;;8.15;4.68;;;;;;;2.36;74.96;95350.97;5053505;28;20244;-80
2022/01/29 04:12:55;;;;;;;6.50;5.90;;;;;;;2.42;75.07;95345.50;5003128;28;20207;-80
2022/01/29 04:15:22;;;;;;;7.90;5.00;;;;;;;2.43;75.31;95341.16;5053228;28;20501;-80
2022/01/29 04:17:49;;;;;;;5.33;4.60;;;;;;;2.42;75.31;95342.06;5018038;28;20958;-77
2022/01/29 04:20:17;;;;;;;7.27;5.93;;;;;;;2.41;75.33;95341.22;5053266;28;20449;-78
2022/01/29 04:22:44;;;;;;;8.00;6.80;;;;;;;2.39;75.61;95327.50;5052988;28;20451;-77
2022/01/29 04:25:11;;;;;;;15.03;6.27;;;;;;;2.45;75.60;95340.16;5053249;28;20437;-80
2022/01/29 04:27:41;;;;;;;10.17;6.90;;;;;;;2.45;75.69;95334.16;5053093;28;20450;-80
2022/01/29 04:30:12;;;;;;;12.50;7.20;;;;;;;2.42;75.54;95335.13;5052963;28;20467;-79
2022/01/29 04:35:24;;;;;;;9.30;5.60;;;;;;;2.41;75.22;95345.56;5050162;28;20451;-80
2022/01/29 04:37:51;;;;;;;6.90;5.37;;;;;;;2.43;75.64;95336.81;5052725;28;20452;-80
2022/01/29 04:40:19;;;;;;;7.10;5.70;;;;;;;2.50;75.52;95342.53;5034305;28;20441;-80
2022/01/29 04:42:46;;;;;;;7.17;5.20;;;;;;;2.54;75.35;95343.25;5053166;28;20448;-79
2022/01/29 04:45:13;;;;;;;6.90;5.43;;;;;;;2.61;74.30;95345.50;5052930;28;20449;-80
2022/01/29 04:47:40;;;;;;;10.03;6.33;;;;;;;2.57;74.35;95349.13;5017436;28;20801;-80
2022/01/29 04:50:08;;;;;;;5.70;4.60;;;;;;;2.62;73.83;95348.94;5052738;28;20446;-80
2022/01/29 04:52:36;;;;;;;8.07;5.80;;;;;;;2.64;74.56;95344.50;5052551;28;20503;-77
2022/01/29 04:55:03;;;;;;;7.20;6.33;;;;;;;2.71;73.37;95351.91;5052583;28;20809;-79
2022/01/29 04:57:30;;;;;;;5.97;5.37;;;;;;;2.83;73.63;95349.66;5001262;28;20438;-80
2022/01/29 04:59:59;;;;;;;12.17;6.03;;;;;;;2.82;72.09;95348.81;5052417;28;20943;-80
2022/01/29 05:02:25;;;;;;;6.13;5.53;;;;;;;2.73;72.34;95341.47;5052648;28;20457;-80
2022/01/29 05:04:52;;;;;;;7.00;6.17;;;;;;;2.62;73.31;95356.69;5052382;28;20449;-80
2022/01/29 05:07:19;;;;;;;6.30;5.10;;;;;;;2.54;73.41;95358.78;5052869;28;20440;-80
2022/01/29 05:09:47;;;;;;;4.53;3.77;;;;;;;2.53;73.70;95357.09;5052422;28;20449;-80
2022/01/29 05:12:19;;;;;;;5.30;4.80;;;;;;;2.54;74.47;95361.38;5052489;28;20494;-80
2022/01/29 05:14:49;;;;;;;6.30;4.50;;;;;;;2.49;73.73;95361.59;5052197;28;20608;-80
2022/01/29 05:28:14;;;;;;;6.73;6.03;;;;;;;2.39;75.81;95381.91;5052125;28;20513;-79
2022/01/29 05:30:41;;;;;;;8.37;6.43;;;;;;;2.36;76.43;95376.84;5052384;28;20448;-79
2022/01/29 05:33:07;;;;;;;9.83;7.07;;;;;;;2.33;76.96;95381.34;5052054;28;20488;-80
2022/01/29 05:35:35;;;;;;;13.50;7.93;;;;;;;2.33;77.05;95381.34;5052147;28;20462;-77
2022/01/29 05:38:01;;;;;;;8.80;7.37;;;;;;;2.41;77.28;95380.06;5052135;28;20447;-80
2022/01/29 05:40:30;;;;;;;7.00;5.80;;;;;;;2.34;77.28;95378.69;5051970;28;20455;-80
2022/01/29 05:42:57;;;;;;;7.07;6.27;;;;;;;2.33;77.76;95389.94;5000928;28;20453;-80
2022/01/29 05:45:23;;;;;;;7.37;6.00;;;;;;;2.33;78.08;95402.91;5052266;28;20448;-80
2022/01/29 05:47:50;;;;;;;8.07;5.50;;;;;;;2.20;78.03;95400.91;5000809;28;20448;-80
2022/01/29 05:50:17;;;;;;;6.40;5.45;;;;;;;2.24;78.27;95405.88;5051876;28;20447;-80
2022/01/29 05:52:44;;;;;;;6.80;6.10;;;;;;;2.26;78.56;95403.22;5051864;28;20234;-79
2022/01/29 05:55:11;;;;;;;8.70;6.00;;;;;;;2.25;78.02;95402.38;5052261;28;20556;-80
2022/01/29 05:57:39;;;;;;;18.00;6.40;;;;;;;2.25;78.75;95415.31;5051984;28;20467;-80
2022/01/29 06:00:07;;;;;;;9.60;6.70;;;;;;;2.28;79.18;95411.75;5051900;28;20451;-81
2022/01/29 06:02:34;;;;;;;7.38;6.35;;;;;;;2.27;79.09;95413.50;5051783;28;20206;-80
2022/01/29 06:05:01;;;;;;;11.32;7.80;;;;;;;2.31;78.99;95419.38;5051876;28;20202;-80
2022/01/29 06:07:28;;;;;;;13.00;9.03;;;;;;;2.27;79.16;95413.50;5000586;28;20209;-80
2022/01/29 06:09:54;;;;;;;10.47;8.13;;;;;;;2.29;79.23;95416.84;5052101;28;20452;-80
2022/01/29 06:12:21;;;;;;;9.93;7.10;;;;;;;2.27;79.09;95418.66;5051979;28;20487;-79
2022/01/29 06:14:49;;;;;;;8.03;5.90;;;;;;;2.27;79.35;95421.25;5000280;28;20444;-79
2022/01/29 06:17:17;;;;;;;12.67;8.50;;;;;;;2.32;79.16;95411.56;5000344;28;20445;-79
2022/01/29 06:19:43;;;;;;;9.60;8.67;;;;;;;2.27;79.06;95423.00;5051689;28;20948;-78
2022/01/29 06:22:13;;;;;;;8.90;6.83;;;;;;;2.31;79.10;95419.38;5051486;28;20450;-79
2022/01/29 06:24:41;;;;;;;7.83;6.80;;;;;;;2.34;78.87;95430.47;5051595;28;20493;-79
2022/01/29 06:27:08;;;;;;;12.80;9.57;;;;;;;2.39;78.58;95433.69;5051725;28;20445;-80
2022/01/29 06:29:35;;;;;;;10.30;9.13;;;;;;;2.39;78.15;95423.31;5051625;28;20452;-80
2022/01/29 06:32:03;;;;;;;10.87;8.30;;;;;;;2.36;78.57;95436.41;5051997;28;20492;-79
2022/01/29 06:34:30;;;;;;;11.20;8.90;;;;;;;2.32;79.13;95432.28;5036721;28;20447;-80
2022/01/29 06:36:57;;;;;;;11.90;8.68;;;;;;;2.33;78.51;95428.78;5055266;28;20444;-80
2022/01/29 06:39:24;;;;;;;28.20;14.27;;;;;;;2.30;78.86;95434.06;5055053;28;20201;-79
2022/01/29 06:41:51;;;;;;;13.80;9.87;;;;;;;2.39;78.35;95438.88;5055410;28;20452;-80
2022/01/29 06:44:18;;;;;;;10.00;7.70;;;;;;;2.44;78.39;95436.91;5055243;28;20444;-79
2022/01/29 06:46:44;;;;;;;9.93;8.27;;;;;;;2.41;78.17;95438.78;5055061;28;20445;-80
2022/01/29 06:49:13;;;;;;;12.10;8.30;;;;;;;2.51;77.34;95449.59;5055174;28;20437;-79
2022/01/29 06:51:40;;;;;;;15.57;9.63;;;;;;;2.61;77.62;95462.06;5003627;28;20481;-80
2022/01/29 06:54:06;;;;;;;9.73;7.23;;;;;;;2.63;77.31;95456.81;5055325;28;20457;-80
2022/01/29 06:56:33;;;;;;;8.73;7.83;;;;;;;2.69;76.99;95451.38;5003638;28;20444;-80
2022/01/29 06:59:00;;;;;;;14.03;10.23;;;;;;;2.73;77.15;95458.09;5054727;28;20441;-81
2022/01/29 07:01:28;;;;;;;8.50;7.50;;;;;;;2.73;76.47;95458.91;5003058;28;20436;-80
2022/01/29 07:03:54;;;;;;;6.67;5.73;;;;;;;2.60;77.08;95456.94;5054859;28;20633;-79
2022/01/29 07:06:23;;;;;;;8.10;6.40;;;;;;;2.60;77.60;95469.88;5054521;28;20959;-79
2022/01/29 07:08:49;;;;;;;9.03;7.90;;;;;;;2.62;77.18;95465.50;5054880;28;20441;-80
2022/01/29 07:11:19;;;;;;;14.07;8.67;;;;;;;2.65;77.09;95467.97;5054697;28;20447;-80
2022/01/29 07:13:46;;;;;;;13.30;9.43;;;;;;;2.67;76.96;95473.91;5054343;28;20454;-80
2022/01/29 07:16:13;;;;;;;13.03;8.13;;;;;;;2.64;77.69;95463.69;5054519;28;20463;-80
2022/01/29 07:18:40;;;;;;;33.57;17.10;;;;;;;2.61;77.71;95462.06;5054453;28;20935;-80
2022/01/29 07:21:07;;;;;;;17.13;9.90;;;;;;;2.67;78.31;95474.75;5054337;28;20443;-80
2022/01/29 07:23:35;;;;;;;12.10;9.13;;;;;;;2.72;77.70;95470.19;5054325;28;20452;-80
2022/01/29 07:26:02;;;;;;;11.50;8.30;;;;;;;2.71;77.85;95478.88;5002628;28;20793;-80
2022/01/29 07:28:29;;;;;;;13.00;11.13;;;;;;;2.67;77.88;95471.31;5055638;28;20453;-80
2022/01/29 07:30:56;;;;;;;16.17;9.67;;;;;;;2.61;78.65;95479.38;5054741;28;20460;-80
2022/01/29 07:33:23;;;;;;;14.70;9.50;;;;;;;2.60;79.09;95472.47;5003091;28;20490;-80
2022/01/29 07:35:49;;;;;;;19.43;12.70;;;;;;;2.63;79.07;95485.31;5054274;28;20444;-79
2022/01/29 07:38:16;;;;;;;14.73;11.53;;;;;;;2.68;78.57;95485.94;5002738;28;20448;-80
2022/01/29 07:40:45;;;;;;;27.93;16.60;;;;;;;2.74;78.58;95475.31;5054078;28;20441;-79
2022/01/29 07:43:11;;;;;;;17.80;13.17;;;;;;;2.80;78.89;95485.38;5053555;28;20457;-80
2022/01/29 07:45:38;;;;;;;16.70;13.63;;;;;;;2.85;78.59;95488.59;5053950;28;20840;-80
2022/01/29 07:48:06;;;;;;;16.20;11.53;;;;;;;2.87;78.01;95491.13;5018614;28;20956;-80
2022/01/29 07:50:32;;;;;;;16.60;11.30;;;;;;;2.88;78.12;95498.00;5053923;28;20916;-81
2022/01/29 07:53:00;;;;;;;14.63;11.40;;;;;;;2.84;78.48;95497.28;5053849;28;20481;-79
2022/01/29 07:55:27;;;;;;;17.40;12.57;;;;;;;2.75;78.68;95487.34;5053690;28;20855;-79
2022/01/29 07:57:55;;;;;;;16.17;11.70;;;;;;;2.72;79.19;95500.44;5053646;28;20467;-79
2022/01/29 08:00:22;;;;;;;18.57;11.47;;;;;;;2.76;78.94;95507.16;5053533;28;20449;-80
2022/01/29 08:02:49;;;;;;;14.63;9.93;;;;;;;2.77;78.86;95498.50;5053496;28;20449;-80
2022/01/29 08:05:16;;;;;;;16.83;11.50;;;;;;;2.84;78.89;95501.63;5053580;28;20448;-80
2022/01/29 08:07:46;;;;;;;11.77;8.90;;;;;;;2.82;79.06;95503.47;5053612;28;20661;-80
2022/01/29 08:10:13;;;;;;;14.80;9.63;;;;;;;2.85;78.70;95505.91;5002072;28;20967;-80
2022/01/29 08:12:40;;;;;;;13.57;10.47;;;;;;;2.86;79.13;95505.00;5053327;28;20493;-80
2022/01/29 08:15:10;;;;;;;8.27;6.67;;;;;;;2.84;78.76;95502.47;5053352;28;20462;-80
2022/01/29 08:17:37;;;;;;;9.50;7.77;;;;;;;2.83;78.33;95505.97;5053473;28;20468;-80
2022/01/29 08:20:04;;;;;;;9.70;8.40;;;;;;;2.92;78.81;95510.78;5053144;28;20524;-79
2022/01/29 08:22:31;;;;;;;13.43;10.60;;;;;;;2.95;78.55;95509.78;5053431;28;20820;-80
2022/01/29 08:24:59;;;;;;;14.07;11.87;;;;;;;3.06;78.50;95505.78;5053144;28;20437;-80
2022/01/29 08:27:26;;;;;;;11.23;9.60;;;;;;;3.10;78.30;95511.66;5053067;28;20999;-79
2022/01/29 08:29:53;;;;;;;13.60;11.20;;;;;;;3.18;78.12;95506.13;5052885;28;20935;-80
2022/01/29 08:32:21;;;;;;;11.87;10.57;;;;;;;3.30;78.17;95509.00;5053625;28;20570;-79
2022/01/29 08:34:48;;;;;;;11.57;10.10;;;;;;;3.39;77.58;95515.50;5053307;28;20806;-80
2022/01/29 08:37:15;;;;;;;19.10;11.97;;;;;;;3.46;77.29;95522.09;5018363;28;20812;-80
2022/01/29 08:39:43;;;;;;;16.10;10.90;;;;;;;3.56;76.62;95512.97;5053406;28;20452;-80
2022/01/29 08:42:10;;;;;;;14.30;11.70;;;;;;;3.55;76.78;95516.50;5052760;28;20995;-80
2022/01/29 08:44:37;;;;;;;18.30;12.17;;;;;;;3.62;76.52;95512.69;5034594;28;20941;-80
2022/01/29 08:47:04;;;;;;;19.37;10.20;;;;;;;3.59;75.55;95518.03;5052623;28;20966;-79
2022/01/29 08:49:32;;;;;;;15.03;10.87;;;;;;;3.56;76.40;95522.53;5052771;28;20441;-80
2022/01/29 08:51:59;;;;;;;10.10;7.90;;;;;;;3.53;76.21;95522.66;5052530;28;20453;-80
2022/01/29 08:54:26;;;;;;;23.30;15.73;;;;;;;3.52;76.00;95516.63;5000629;28;20430;-80
2022/01/29 08:56:53;;;;;;;16.30;11.30;;;;;;;3.59;75.68;95522.38;5052694;28;20448;-79
2022/01/29 08:59:20;;;;;;;20.37;14.37;;;;;;;3.61;76.65;95521.38;5052888;28;20433;-81
2022/01/29 09:01:47;;;;;;;14.23;11.50;;;;;;;3.57;76.06;95534.59;5052412;28;20449;-80
2022/01/29 09:04:14;;;;;;;24.67;18.80;;;;;;;3.47;76.18;95526.41;5053347;28;20455;-80
2022/01/29 09:06:43;;;;;;;19.53;15.03;;;;;;;3.48;77.04;95524.63;5001775;28;20441;-80
2022/01/29 09:09:09;;;;;;;9.43;8.30;;;;;;;3.43;77.23;95530.84;5002180;28;20448;-80
2022/01/29 09:11:36;;;;;;;10.17;8.60;;;;;;;3.26;77.65;95524.78;5053336;28;20975;-82
2022/01/29 09:14:03;;;;;;;8.30;7.07;;;;;;;3.15;78.17;95527.00;5053476;28;20486;-80
2022/01/29 09:16:30;;;;;;;14.50;8.73;;;;;;;3.14;78.77;95522.75;5053292;28;20939;-81
2022/01/29 09:18:57;;;;;;;12.50;11.20;;;;;;;3.16;79.00;95528.69;5052914;28;20452;-80
2022/01/29 09:21:24;;;;;;;11.90;9.80;;;;;;;3.13;78.68;95534.03;5053618;28;20449;-80
2022/01/29 09:23:55;;;;;;;21.60;11.17;;;;;;;3.23;79.49;95528.38;5053641;28;20799;-79
2022/01/29 09:26:23;;;;;;;13.23;9.53;;;;;;;3.38;78.27;95521.63;5053379;28;20536;-79
2022/01/29 09:28:49;;;;;;;13.17;10.20;;;;;;;3.44;78.60;95518.72;5053291;28;20452;-79
2022/01/29 09:31:16;;;;;;;17.33;11.90;;;;;;;3.43;77.90;95519.66;5001861;28;20465;-78
2022/01/29 09:33:43;;;;;;;12.93;10.23;;;;;;;3.46;77.17;95527.28;5053213;28;20485;-78
2022/01/29 09:36:10;;;;;;;17.43;12.20;;;;;;;3.57;77.14;95519.00;5053213;28;20445;-79
2022/01/29 09:38:37;;;;;;;19.30;10.87;;;;;;;3.58;77.06;95513.75;5053109;28;20457;-78
2022/01/29 09:41:06;;;;;;;17.00;11.67;;;;;;;3.70;76.12;95520.09;5017962;28;20774;-77
2022/01/29 09:43:34;;;;;;;24.07;13.80;;;;;;;3.70;75.58;95515.75;5053435;28;20468;-78
2022/01/29 09:46:03;;;;;;;23.23;13.80;;;;;;;3.74;76.44;95525.06;5052807;28;20530;-79
2022/01/29 09:48:30;;;;;;;13.37;9.10;;;;;;;3.63;76.12;95524.75;5053262;28;20482;-80
2022/01/29 09:50:58;;;;;;;12.63;8.13;;;;;;;3.52;76.39;95529.63;5052799;28;20458;-78
2022/01/29 09:53:25;;;;;;;12.87;8.13;;;;;;;3.50;76.04;95526.25;5052904;28;20839;-78
2022/01/29 09:55:52;;;;;;;11.73;9.07;;;;;;;3.50;77.10;95535.78;5053705;28;20441;-78
2022/01/29 09:58:21;;;;;;;31.00;16.30;;;;;;;3.55;76.38;95531.22;5053610;28;20452;-75
2022/01/29 10:00:48;;;;;;;24.07;15.50;;;;;;;3.60;76.31;95535.28;5038197;28;20458;-78
2022/01/29 10:03:19;;;;;;;28.23;15.90;;;;;;;3.74;76.59;95524.22;5033006;28;20952;-79
2022/01/29 10:05:48;;;;;;;18.83;14.13;;;;;;;3.76;77.31;95516.34;5045349;28;20814;-79
2022/01/29 10:08:16;;;;;;;25.17;14.03;;;;;;;3.83;76.57;95526.41;4986918;28;20457;-79
2022/01/29 10:10:46;;;;;;;16.93;11.67;;;;;;;3.85;76.35;95524.56;5037247;28;20488;-79
2022/01/29 10:13:32;;;;;;;17.70;11.30;;;;;;;3.89;76.46;95510.50;5036724;28;20574;-79
2022/01/29 10:16:13;;;;;;;14.83;10.70;;;;;;;3.96;75.81;95514.50;5036976;28;20452;-79
2022/01/29 10:18:41;;;;;;;16.77;11.50;;;;;;;4.02;75.69;95521.97;5036997;28;20532;-78
2022/01/29 10:21:16;;;;;;;18.70;12.73;;;;;;;4.13;75.02;95521.47;5036794;28;20945;-79
2022/01/29 10:23:45;;;;;;;16.77;12.90;;;;;;;4.17;74.77;95522.16;5037380;28;20459;-78
2022/01/29 10:26:25;;;;;;;26.93;12.93;;;;;;;4.18;74.54;95523.81;5036713;28;20433;-79
2022/01/29 10:28:55;;;;;;;17.30;9.97;;;;;;;4.28;73.74;95518.09;5037063;28;20457;-78
2022/01/29 10:31:22;;;;;;;16.00;12.63;;;;;;;4.29;72.65;95519.75;5036577;28;20488;-78
2022/01/29 10:33:49;;;;;;;25.60;15.23;;;;;;;4.19;72.56;95512.53;5036981;28;20474;-76
2022/01/29 10:36:18;;;;;;;15.00;11.40;;;;;;;4.16;73.27;95529.09;5036824;28;20439;-78
2022/01/29 10:42:15;;;;;;;13.30;9.43;;;;;;;3.98;73.70;95517.84;5035900;28;20434;-79
2022/01/29 10:44:45;;;;;;;13.03;11.60;;;;;;;4.01;74.60;95520.28;5028983;28;20430;-78
2022/01/29 10:47:12;;;;;;;12.30;10.00;;;;;;;4.06;75.55;95517.50;5016450;28;20856;-78
2022/01/29 10:49:45;;;;;;;16.97;9.40;;;;;;;4.02;75.02;95523.72;5020046;28;20931;-79
2022/01/29 10:52:14;;;;;;;14.27;8.93;;;;;;;3.87;76.05;95522.72;5036344;28;20434;-77
2022/01/29 10:54:42;;;;;;;15.07;10.20;;;;;;;3.82;76.49;95526.47;5036163;28;20486;-78
2022/01/29 10:57:10;;;;;;;44.00;22.90;;;;;;;3.78;76.46;95522.34;5036366;28;20853;-78
2022/01/29 10:59:46;;;;;;;22.90;15.80;;;;;;;3.82;76.30;95529.91;4985255;28;20449;-78
2022/01/29 11:02:14;;;;;;;26.97;15.27;;;;;;;3.85;76.78;95528.91;5036312;28;20829;-79
2022/01/29 11:04:44;;;;;;;17.37;11.20;;;;;;;3.79;77.05;95526.63;5036724;28;20434;-79
2022/01/29 11:07:16;;;;;;;19.03;13.60;;;;;;;3.76;77.08;95529.34;5035784;28;20446;-79
2022/01/29 11:09:44;;;;;;;13.37;9.63;;;;;;;3.65;76.57;95524.66;5035745;28;20430;-79
2022/01/29 11:12:13;;;;;;;15.27;12.50;;;;;;;3.57;77.54;95521.59;5035657;28;20526;-78
2022/01/29 11:14:42;;;;;;;21.47;13.33;;;;;;;3.57;78.24;95524.19;5036078;28;20479;-79
2022/01/29 11:17:10;;;;;;;22.10;13.80;;;;;;;3.61;77.43;95508.41;5036184;28;20500;-78
2022/01/29 11:19:40;;;;;;;13.97;9.63;;;;;;;3.59;76.95;95512.00;5035058;28;20893;-78
2022/01/29 11:22:09;;;;;;;15.80;11.93;;;;;;;3.63;78.47;95500.56;5035720;28;20431;-78
2022/01/29 11:24:38;;;;;;;21.80;12.43;;;;;;;3.68;78.90;95512.38;5035973;28;20447;-79
2022/01/29 11:27:22;;;;;;;16.13;10.37;;;;;;;3.78;78.85;95504.19;5035191;28;20786;-78
2022/01/29 11:30:00;;;;;;;17.50;11.50;;;;;;;3.83;78.07;95504.78;5035582;28;20446;-78
2022/01/29 11:32:32;;;;;;;16.67;11.87;;;;;;;3.90;77.93;95503.56;5036067;28;20815;-79
2022/01/29 11:35:20;;;;;;;15.43;10.47;;;;;;;3.87;77.61;95512.34;5035095;28;20474;-78
2022/01/29 11:37:58;;;;;;;13.80;10.80;;;;;;;3.84;77.10;95512.50;5035795;28;20795;-79
2022/01/29 11:40:28;;;;;;;12.23;9.90;;;;;;;3.74;77.12;95506.88;5035812;28;20426;-78
2022/01/29 11:42:58;;;;;;;15.63;11.13;;;;;;;3.68;78.28;95512.38;5035269;28;20437;-79
2022/01/29 11:45:44;;;;;;;17.00;12.63;;;;;;;3.66;78.33;95508.19;5046243;28;20449;-78
2022/01/29 11:48:39;;;;;;;17.13;11.20;;;;;;;3.55;77.73;95511.31;5055267;28;20454;-78
2022/01/29 11:51:09;;;;;;;18.23;11.73;;;;;;;3.45;78.04;95507.44;5055454;28;20474;-78
2022/01/29 11:53:58;;;;;;;21.90;12.87;;;;;;;3.47;78.19;95509.97;5055165;28;20479;-78
2022/01/29 11:56:29;;;;;;;16.70;10.77;;;;;;;3.38;78.89;95506.06;5036594;28;20446;-76